• Join FlightAware (Why Join?)
  • Login
  • US Flag 
01:37PM EDT


 

Airport Tracker/Info


-or-


 

Live Flight TrackerFlight Track Log ✈ N946CE ✈ 09-May-2013 ✈ CYTZ - KPTK

Flight Track Log - Related Links

Times and Time Zones

All times are in EDT time to prevent confusion due to time zone crossing. See the N946CE flight status page for this flight to view local times or setup timezone preferences in your user account.

Time Position Orientation Groundspeed Altitude Reporting Facility
EDT Latitude Longitude Course Direction KTS MPH feet Rate Location/Type
03:19PM 43.6167 -79.3833 236° Southwest 140 161 600  Level Toronto Center
03:20PM 43.5833 -79.4000 200° South 160 184 2,100 1,560 Climbing Toronto Center
03:21PM 43.5333 -79.4000 180° South 170 196 3,800 1,020 Climbing Toronto Center
03:22PM 43.4833 -79.4500 216° Southwest 200 230 4,200 900 Climbing Toronto Center
03:23PM 43.4500 -79.5167 235° Southwest 210 242 5,600 900 Climbing Toronto Center
03:24PM 43.3635 -79.7598 224° Southwest  Level FlightAware Approximate
03:24PM 43.4000 -79.5667 216° Southwest 220 253 6,000  Level Toronto Center
03:25PM 43.3215 -79.8237 236° Southwest  Level FlightAware Approximate
03:25PM 43.3500 -79.6333 224° Southwest 240 276 6,500  Level Toronto Center
03:26PM 43.3167 -79.7000 236° Southwest 220 253 8,000 1,620 Climbing Toronto Center
03:27PM 43.2667 -79.7500 216° Southwest 210 242 9,800 1,980 Climbing Toronto Center
03:28PM 43.2333 -79.8000 228° Southwest 180 207 12,000 1,980 Climbing Toronto Center
03:29PM 43.2167 -79.8667 251° West 170 196 13,800 1,680 Climbing Toronto Center
03:30PM 43.2167 -79.9333 270° West 180 207 15,400 1,800 Climbing Toronto Center
03:31PM 43.2000 -79.9833 245° Southwest 170 196 17,400 1,260 Climbing Toronto Center
03:32PM 43.1833 -80.0500 251° West 180 207 18,000 300 Climbing Toronto Center
03:33PM 43.1667 -80.1333 255° West 240 276 18,000  Level Toronto Center
03:34PM 43.1500 -80.2333 257° West 250 288 18,000  Level Toronto Center
03:35PM 43.1333 -80.3333 257° West 250 288 18,000  Level Toronto Center
03:36PM 43.1167 -80.4167 255° West 250 288 18,000  Level Toronto Center
03:37PM 43.1000 -80.5000 255° West 240 276 18,000  Level Toronto Center
03:38PM 43.0833 -80.6000 257° West 240 276 18,000  Level Toronto Center
03:39PM 43.0667 -80.6833 255° West 240 276 18,000  Level Toronto Center
03:40PM 43.0500 -80.7667 255° West 240 276 18,000  Level Toronto Center
03:41PM 43.0167 -80.8667 246° West 240 276 18,000  Level Toronto Center
03:42PM 43.0000 -80.9500 255° West 250 288 18,000  Level Toronto Center
03:43PM 43.0000 -81.0500 270° West 240 276 18,000  Level Toronto Center
03:44PM 42.9833 -81.1333 255° West 240 276 18,000  Level Toronto Center
03:45PM 42.9667 -81.2333 257° West 250 288 18,000  Level Toronto Center
03:46PM 42.9500 -81.3167 255° West 250 288 18,000  Level Toronto Center
03:47PM 42.9333 -81.4167 257° West 250 288 18,000  Level Toronto Center
03:48PM 42.9167 -81.5000 255° West 250 288 18,000  Level Toronto Center
03:49PM 42.9000 -81.5833 255° West 240 276 18,000 -660 Level Toronto Center
03:50PM 42.8833 -81.6833 257° West 250 288 16,700 -1,500 Descending Toronto Center
03:51PM 42.8644 -81.7956 257° West 244 281 14,800 -1,680 Descending Cleveland Center
03:52PM 42.8489 -81.8831 256° West 244 281 13,100 -1,440 Descending Cleveland Center
03:53PM 42.8311 -81.9733 255° West 244 281 12,000 -1,200 Descending Cleveland Center
03:54PM 42.8114 -82.0578 252° West 239 275 10,800 -1,020 Descending Cleveland Center
03:55PM 42.7917 -82.1308 250° West 232 267 10,000 -420 Descending Cleveland Center
03:56PM 42.7739 -82.2094 253° West 221 254 10,000  Level Cleveland Center
03:57PM 42.7728 -82.2886 269° West 216 249 10,000  Level Cleveland Center
03:58PM 42.7672 -82.3678 265° West 216 249 10,000  Level Cleveland Center
03:59PM 42.7639 -82.4469 267° West 216 249 10,000  Level Cleveland Center
04:00PM 42.7583 -82.5286 265° West 216 249 10,000 -360 Level Cleveland Center
04:01PM 42.7592 -82.6078 271° West 216 249 9,300 -1,020 Descending Cleveland Center
04:02PM 42.7517 -82.6783 262° West 208 239 8,100 -1,320 Descending Cleveland Center
04:03PM 42.7503 -82.7575 269° West 216 249 6,700 -1,380 Descending Cleveland Center
04:04PM 42.7403 -82.8364 260° West 208 239 5,400 -1,320 Descending Cleveland Center
04:05PM 42.7306 -82.9094 260° West 205 236 4,200 -660 Descending Cleveland Center
04:06PM 42.7183 -82.9994 260° West 199 229 4,000 -120 Descending Cleveland Center
04:07PM 42.7106 -83.0725 262° West 198 228 4,000 -240 Level Cleveland Center
04:08PM 42.6983 -83.1511 258° West 207 238 3,600 -420 Descending Cleveland Center
04:09PM 42.6928 -83.2158 263° West 200 230 3,200 -540 Descending Cleveland Center
04:10PM 42.6806 -83.2917 258° West 150 173 2,600 -480 Descending Cleveland Center
04:11PM 42.6669 -83.3364 248° West 126 145 2,200 -600 Descending Cleveland Center
04:12PM 42.6678 -83.3844 271° West 115 132 1,400 -840 Descending Cleveland Center